DLH374 MROC-MRLB
Flight info
| Callsign | DLH374 |
|---|---|
| Flight time | N/A |
| Altitude | 15000 |
| Route | NANJO3L LIB |
| Aircraft | A320/M-SDE3FGHIRWY/LB1 |
Departure
| Time | 2026-04-29 01:13 |
|---|---|
| Airport | Juan Santamaría International Airport (MROC) |
Arrival
| Time | N/A |
|---|---|
| Airport | Daniel Oduber Quirós International Airport (MRLB) |
| Time | Latitude | Longitude | Altitude | Speed | Heading |
|---|---|---|---|---|---|
| 2026-04-29 00:57 | 9.99501 | -84.21038 | 2986 ft | 0 kts | 161° |
| 2026-04-29 01:05 | 9.99503 | -84.21039 | 2986 ft | 3 kts | 161° |
| 2026-04-29 01:05 | 9.99520 | -84.21045 | 2968 ft | 3 kts | 161° |
| 2026-04-29 01:06 | 9.99536 | -84.21050 | 2992 ft | 2 kts | 177° |
| 2026-04-29 01:06 | 9.99551 | -84.21058 | 2986 ft | 3 kts | 93° |
| 2026-04-29 01:06 | 9.99551 | -84.21064 | 2986 ft | 0 kts | 77° |
| 2026-04-29 01:08 | 9.99552 | -84.21038 | 2987 ft | 7 kts | 83° |
| 2026-04-29 01:08 | 9.99563 | -84.20967 | 2990 ft | 13 kts | 120° |
| 2026-04-29 01:08 | 9.99489 | -84.20912 | 2992 ft | 13 kts | 110° |
| 2026-04-29 01:09 | 9.99468 | -84.20894 | 2992 ft | 4 kts | 268° |
| 2026-04-29 01:09 | 9.99458 | -84.20964 | 2989 ft | 16 kts | 256° |
| 2026-04-29 01:09 | 9.99412 | -84.21088 | 2982 ft | 21 kts | 249° |
| 2026-04-29 01:09 | 9.99354 | -84.21244 | 2975 ft | 26 kts | 249° |
| 2026-04-29 01:10 | 9.99285 | -84.21426 | 2967 ft | 30 kts | 249° |
| 2026-04-29 01:10 | 9.99205 | -84.21635 | 2950 ft | 33 kts | 249° |
| 2026-04-29 01:10 | 9.99126 | -84.21848 | 2946 ft | 34 kts | 249° |
| 2026-04-29 01:10 | 9.99102 | -84.22011 | 2943 ft | 23 kts | 277° |
| 2026-04-29 01:11 | 9.99069 | -84.22160 | 2930 ft | 17 kts | 244° |
| 2026-04-29 01:11 | 9.99015 | -84.22200 | 2932 ft | 0 kts | 178° |
| 2026-04-29 01:11 | 9.99003 | -84.22199 | 2934 ft | 4 kts | 174° |
| 2026-04-29 01:11 | 9.98968 | -84.22188 | 2934 ft | 7 kts | 159° |
| 2026-04-29 01:12 | 9.98927 | -84.22150 | 2934 ft | 9 kts | 104° |
| 2026-04-29 01:12 | 9.98941 | -84.22094 | 2931 ft | 10 kts | 67° |
| 2026-04-29 01:12 | 9.99045 | -84.21815 | 2950 ft | 80 kts | 69° |
| 2026-04-29 01:12 | 9.99324 | -84.21079 | 2982 ft | 141 kts | 69° |
| 2026-04-29 01:13 | 9.99718 | -84.20010 | 3186 ft | 175 kts | 70° |
| 2026-04-29 01:13 | 10.00242 | -84.18849 | 3839 ft | 183 kts | 58° |
| 2026-04-29 01:13 | 10.01326 | -84.18072 | 4361 ft | 209 kts | 13° |
| 2026-04-29 01:13 | 10.02823 | -84.18287 | 4837 ft | 238 kts | 334° |
| 2026-04-29 01:14 | 10.04164 | -84.19328 | 5696 ft | 245 kts | 318° |
| 2026-04-29 01:14 | 10.05333 | -84.20586 | 6723 ft | 248 kts | 308° |
| 2026-04-29 01:14 | 10.06017 | -84.22244 | 7439 ft | 268 kts | 283° |
| 2026-04-29 01:14 | 10.06498 | -84.24152 | 8112 ft | 286 kts | 287° |
| 2026-04-29 01:15 | 10.07119 | -84.26113 | 9034 ft | 293 kts | 289° |
| 2026-04-29 01:15 | 10.07805 | -84.28052 | 10009 ft | 297 kts | 290° |
| 2026-04-29 01:15 | 10.08557 | -84.30080 | 10535 ft | 319 kts | 291° |
| 2026-04-29 01:15 | 10.09383 | -84.32266 | 10898 ft | 343 kts | 291° |
| 2026-04-29 01:16 | 10.10254 | -84.34570 | 11534 ft | 354 kts | 291° |
| 2026-04-29 01:16 | 10.11121 | -84.36892 | 12316 ft | 359 kts | 291° |